createdAt,value
2019-01-06T00:00:04.890Z,101457.31
2019-01-06T00:02:58.630Z,101455.55
2019-01-06T00:06:00.487Z,101461.14
2019-01-06T00:08:51.906Z,101461.97
2019-01-06T00:11:43.174Z,101461.56
2019-01-06T00:14:33.988Z,101464.97
2019-01-06T00:17:26.368Z,101481.72
2019-01-06T00:20:17.663Z,101478.72
2019-01-06T00:23:22.156Z,101476.14
2019-01-06T00:26:26.702Z,101475.67
2019-01-06T00:29:21.923Z,101481.30
2019-01-06T00:32:17.347Z,101486.00
2019-01-06T00:35:13.585Z,101481.66
2019-01-06T00:38:05.064Z,101485.02
2019-01-06T00:40:55.664Z,101488.48
2019-01-06T00:43:55.405Z,101500.11
2019-01-06T00:46:43.953Z,101506.20
2019-01-06T00:49:35.389Z,101504.45
2019-01-06T00:52:40.377Z,101506.63
2019-01-06T00:55:38.503Z,101511.79
2019-01-06T00:58:31.926Z,101500.98
2019-01-06T01:01:23.693Z,101512.20
2019-01-06T01:04:22.144Z,101518.27
2019-01-06T01:07:13.551Z,101528.61
2019-01-06T01:10:05.019Z,101524.30
2019-01-06T01:13:00.124Z,101527.66
2019-01-06T01:15:51.129Z,101535.00
2019-01-06T01:18:44.686Z,101531.95
2019-01-06T01:21:44.812Z,101538.82
2019-01-06T01:24:35.833Z,101546.11
2019-01-06T01:27:34.405Z,101551.79
2019-01-06T01:30:35.579Z,101546.98
2019-01-06T01:33:35.376Z,101552.09
2019-01-06T01:36:30.226Z,101549.92
2019-01-06T01:39:25.995Z,101555.08
2019-01-06T01:42:30.427Z,101564.41
2019-01-06T01:45:32.148Z,101560.83
2019-01-06T01:48:24.436Z,101568.92
2019-01-06T01:51:18.608Z,101574.38
2019-01-06T01:54:20.616Z,101570.45
2019-01-06T01:57:12.508Z,101567.73
2019-01-06T02:00:08.771Z,101573.31
2019-01-06T02:02:59.984Z,101570.71
2019-01-06T02:05:51.635Z,101582.75
2019-01-06T02:08:42.755Z,101578.46
2019-01-06T02:11:38.235Z,101577.52
2019-01-06T02:14:24.723Z,101581.80
2019-01-06T02:17:17.339Z,101588.31
2019-01-06T02:20:25.187Z,101589.14
2019-01-06T02:23:20.430Z,101589.08
2019-01-06T02:26:13.128Z,101595.05
2019-01-06T02:29:14.611Z,101593.75
2019-01-06T02:32:10.198Z,101602.33
2019-01-06T02:35:01.595Z,101601.86
2019-01-06T02:38:03.150Z,101609.53
2019-01-06T02:41:07.586Z,101619.38
2019-01-06T02:44:00.031Z,101618.89
2019-01-06T02:46:50.726Z,101606.81
2019-01-06T02:49:42.963Z,101614.48
2019-01-06T02:52:41.544Z,101612.70
2019-01-06T02:55:32.544Z,101614.36
2019-01-06T02:58:37.290Z,101616.51
2019-01-06T03:01:32.404Z,101613.41
2019-01-06T03:04:37.624Z,101619.78
2019-01-06T03:07:36.106Z,101621.48
2019-01-06T03:10:42.303Z,101621.95
2019-01-06T03:13:50.604Z,101629.23
2019-01-06T03:16:42.123Z,101630.97
2019-01-06T03:19:32.934Z,101636.88
2019-01-06T03:22:24.321Z,101639.87
2019-01-06T03:25:19.505Z,101648.45
2019-01-06T03:28:11.278Z,101657.95
2019-01-06T03:31:15.748Z,101645.51
2019-01-06T03:34:13.008Z,101658.00
2019-01-06T03:37:09.730Z,101653.17
2019-01-06T03:40:05.787Z,101659.16
2019-01-06T03:42:57.682Z,101672.48
2019-01-06T03:45:59.227Z,101663.05
2019-01-06T03:48:54.590Z,101668.61
2019-01-06T03:51:50.104Z,101666.41
2019-01-06T03:54:49.023Z,101673.75
2019-01-06T03:57:40.108Z,101678.11
2019-01-06T04:00:37.355Z,101672.01
2019-01-06T04:03:31.911Z,101679.24
2019-01-06T04:06:27.410Z,101672.66
2019-01-06T04:09:19.945Z,101679.91
2019-01-06T04:12:15.712Z,101679.41
2019-01-06T04:15:10.971Z,101684.98
2019-01-06T04:17:58.885Z,101686.20
2019-01-06T04:20:50.305Z,101690.91
2019-01-06T04:23:43.807Z,101690.42
2019-01-06T04:26:41.432Z,101702.89
2019-01-06T04:29:32.543Z,101702.77
2019-01-06T04:32:27.524Z,101703.63
2019-01-06T04:35:34.083Z,101704.92
2019-01-06T04:38:42.586Z,101701.92
2019-01-06T04:41:33.543Z,101706.64
2019-01-06T04:44:24.763Z,101709.61
2019-01-06T04:47:16.963Z,101711.72
2019-01-06T04:50:12.104Z,101722.56
2019-01-06T04:53:04.725Z,101720.40
2019-01-06T04:55:57.297Z,101723.94
2019-01-06T04:58:51.251Z,101719.69
2019-01-06T05:01:43.646Z,101727.84
2019-01-06T05:04:35.851Z,101730.00
2019-01-06T05:07:35.287Z,101733.88
2019-01-06T05:10:26.587Z,101743.31
2019-01-06T05:13:28.890Z,101750.18
2019-01-06T05:16:19.183Z,101748.07
2019-01-06T05:19:09.786Z,101747.16
2019-01-06T05:22:01.771Z,101757.42
2019-01-06T05:24:52.969Z,101755.66
2019-01-06T05:27:43.928Z,101755.66
2019-01-06T05:30:37.505Z,101774.52
2019-01-06T05:33:28.113Z,101771.06
2019-01-06T05:36:35.486Z,101786.54
2019-01-06T05:39:28.403Z,101792.99
2019-01-06T05:42:20.212Z,101783.94
2019-01-06T05:45:12.012Z,101789.18
2019-01-06T05:48:02.865Z,101795.22
2019-01-06T05:51:05.664Z,101799.12
2019-01-06T05:54:17.867Z,101805.27
2019-01-06T05:57:04.274Z,101795.64
2019-01-06T06:00:01.368Z,101792.07
2019-01-06T06:02:52.527Z,101791.68
2019-01-06T06:05:44.037Z,101800.72
2019-01-06T06:08:36.584Z,101802.01
2019-01-06T06:11:42.066Z,101806.13
2019-01-06T06:14:47.425Z,101808.13
2019-01-06T06:17:48.944Z,101813.80
2019-01-06T06:20:54.824Z,101818.33
2019-01-06T06:23:59.269Z,101816.13
2019-01-06T06:27:06.107Z,101824.27
2019-01-06T06:29:57.964Z,101829.55
2019-01-06T06:32:52.929Z,101830.50
2019-01-06T06:35:45.429Z,101821.80
2019-01-06T06:38:47.387Z,101830.19
2019-01-06T06:41:42.848Z,101821.84
2019-01-06T06:44:35.328Z,101835.23
2019-01-06T06:47:21.654Z,101833.39
2019-01-06T06:50:19.250Z,101833.73
2019-01-06T06:53:09.751Z,101842.37
2019-01-06T06:56:01.651Z,101829.03
2019-01-06T06:58:56.967Z,101824.19
2019-01-06T07:02:49.909Z,101837.11
2019-01-06T07:05:45.988Z,101834.45
2019-01-06T07:08:38.689Z,101843.65
2019-01-06T07:11:45.830Z,101848.17
2019-01-06T07:14:33.851Z,101842.37
2019-01-06T07:18:09.244Z,101854.66
2019-01-06T07:21:03.752Z,101863.58
2019-01-06T07:24:04.564Z,101870.91
2019-01-06T07:26:55.294Z,101874.20
2019-01-06T07:29:50.558Z,101870.02
2019-01-06T07:32:55.070Z,101884.31
2019-01-06T07:35:46.305Z,101883.00
2019-01-06T07:38:48.809Z,101890.74
2019-01-06T07:41:39.896Z,101887.37
2019-01-06T07:44:35.479Z,101895.05
2019-01-06T07:47:26.608Z,101903.30
2019-01-06T07:50:19.657Z,101903.01
2019-01-06T07:53:21.468Z,101898.69
2019-01-06T07:56:23.194Z,101910.45
2019-01-06T07:59:14.510Z,101915.91
2019-01-06T08:02:12.631Z,101911.88
2019-01-06T08:05:04.727Z,101923.74
2019-01-06T08:08:06.426Z,101929.41
2019-01-06T08:11:01.101Z,101933.27
2019-01-06T08:13:57.086Z,101934.53
2019-01-06T08:16:49.786Z,101940.75
2019-01-06T08:19:41.774Z,101941.95
2019-01-06T08:22:36.825Z,101955.67
2019-01-06T08:25:38.285Z,101960.48
2019-01-06T08:28:37.068Z,101960.70
2019-01-06T08:31:32.568Z,101960.27
2019-01-06T08:34:21.568Z,101964.52
2019-01-06T08:37:18.628Z,101971.84
2019-01-06T08:40:09.611Z,101968.80
2019-01-06T08:42:59.249Z,101974.74
2019-01-06T08:46:03.554Z,101978.99
2019-01-06T08:49:06.488Z,101990.95
2019-01-06T08:51:58.315Z,101994.34
2019-01-06T08:54:59.428Z,101993.43
2019-01-06T08:58:01.088Z,101995.44
2019-01-06T09:00:53.676Z,101996.84
2019-01-06T09:03:52.535Z,102004.14
2019-01-06T09:06:56.856Z,102005.74
2019-01-06T09:09:47.888Z,102003.47
2019-01-06T09:12:49.090Z,102008.56
2019-01-06T09:15:45.276Z,102003.60
2019-01-06T09:18:56.148Z,102006.59
2019-01-06T09:21:47.149Z,101999.33
2019-01-06T09:24:54.223Z,102017.59
2019-01-06T09:27:50.168Z,102013.72
2019-01-06T09:30:41.472Z,102015.73
2019-01-06T09:33:39.295Z,102011.01
2019-01-06T09:36:40.188Z,102017.08
2019-01-06T09:39:45.796Z,102006.37
2019-01-06T09:42:50.052Z,102008.24
2019-01-06T09:45:44.046Z,102005.05
2019-01-06T09:48:34.906Z,102009.95
2019-01-06T09:51:30.568Z,102018.11
2019-01-06T09:54:32.333Z,102011.97
2019-01-06T09:57:36.355Z,102016.45
2019-01-06T10:00:44.469Z,102016.25
2019-01-06T10:03:45.069Z,102016.63
2019-01-06T10:06:36.389Z,102012.64
2019-01-06T10:09:42.160Z,102023.13
2019-01-06T10:12:32.349Z,102025.95
2019-01-06T10:15:34.843Z,102021.23
2019-01-06T10:18:25.908Z,102027.84
2019-01-06T10:21:27.415Z,102028.98
2019-01-06T10:24:18.156Z,102040.71
2019-01-06T10:27:09.164Z,102038.59
2019-01-06T10:30:00.629Z,102042.53
2019-01-06T10:32:52.928Z,102034.14
2019-01-06T10:35:51.867Z,102037.13
2019-01-06T10:38:44.208Z,102035.77
2019-01-06T10:41:43.609Z,102044.53
2019-01-06T10:44:34.427Z,102051.19
2019-01-06T10:47:25.177Z,102050.20
2019-01-06T10:50:15.874Z,102047.25
2019-01-06T10:53:08.440Z,102053.97
2019-01-06T10:55:59.394Z,102051.33
2019-01-06T10:58:52.226Z,102057.06
2019-01-06T11:02:02.898Z,102056.28
2019-01-06T11:05:04.946Z,102055.84
2019-01-06T11:07:56.279Z,102063.72
2019-01-06T11:11:04.507Z,102060.02
2019-01-06T11:13:55.607Z,102059.09
2019-01-06T11:16:46.991Z,102058.66
2019-01-06T11:19:38.217Z,102065.17
2019-01-06T11:22:36.987Z,102055.73
2019-01-06T11:25:29.900Z,102066.30
2019-01-06T11:28:20.777Z,102073.36
2019-01-06T11:31:13.535Z,102070.33
2019-01-06T11:34:00.714Z,102070.87
2019-01-06T11:36:53.395Z,102056.25
2019-01-06T11:39:57.847Z,102064.33
2019-01-06T11:42:53.679Z,102076.70
2019-01-06T11:45:44.968Z,102077.48
2019-01-06T11:48:37.261Z,102079.39
2019-01-06T11:51:29.139Z,102075.52
2019-01-06T11:57:11.434Z,102081.06
2019-01-06T12:00:02.549Z,102083.74
2019-01-06T12:02:55.472Z,102084.35
2019-01-06T12:05:49.947Z,102086.70
2019-01-06T12:08:41.087Z,102093.48
2019-01-06T12:11:32.694Z,102095.34
2019-01-06T12:14:24.127Z,102104.17
2019-01-06T12:17:23.156Z,102091.47
2019-01-06T12:20:17.127Z,102099.85
2019-01-06T12:23:12.180Z,102096.66
2019-01-06T12:26:05.258Z,102102.62
2019-01-06T12:28:56.669Z,102105.97
2019-01-06T12:32:03.192Z,102107.95
2019-01-06T12:35:05.354Z,102111.42
2019-01-06T12:37:57.387Z,102116.25
2019-01-06T12:40:48.587Z,102123.41
2019-01-06T12:43:37.922Z,102131.73
2019-01-06T12:46:29.152Z,102127.72
2019-01-06T12:49:21.188Z,102130.63
2019-01-06T12:52:12.523Z,102136.92
2019-01-06T12:55:04.930Z,102138.39
2019-01-06T12:57:57.787Z,102141.86
2019-01-06T13:00:49.119Z,102143.14
2019-01-06T13:03:41.846Z,102151.98
2019-01-06T13:06:38.953Z,102151.77
2019-01-06T13:09:32.279Z,102163.38
2019-01-06T13:12:25.287Z,102172.84
2019-01-06T13:15:26.731Z,102172.06
2019-01-06T13:18:26.286Z,102168.16
2019-01-06T13:22:00.046Z,102174.98
2019-01-06T13:24:21.753Z,102178.62
2019-01-06T13:26:33.117Z,102181.42
2019-01-06T13:28:46.355Z,102178.98
2019-01-06T13:31:00.513Z,102182.77
2019-01-06T13:33:12.189Z,102183.18
2019-01-06T13:35:31.356Z,102179.97
2019-01-06T13:37:42.757Z,102182.43
2019-01-06T13:40:04.869Z,102183.84
2019-01-06T13:42:10.005Z,102185.95
2019-01-06T13:44:21.448Z,102189.81
2019-01-06T13:46:33.077Z,102185.47
2019-01-06T13:48:49.169Z,102190.22
2019-01-06T13:51:08.030Z,102190.22
2019-01-06T13:53:31.554Z,102193.89
2019-01-06T13:55:43.227Z,102193.48
2019-01-06T13:58:02.394Z,102197.47
2019-01-06T14:00:15.409Z,102194.68
2019-01-06T14:02:21.738Z,102200.77
2019-01-06T14:04:49.865Z,102203.22
2019-01-06T14:07:02.062Z,102205.88
2019-01-06T14:09:31.167Z,102206.72
2019-01-06T14:11:47.677Z,102205.91
2019-01-06T14:14:08.020Z,102206.28
2019-01-06T14:16:40.055Z,102209.63
2019-01-06T14:18:51.441Z,102208.66
2019-01-06T14:21:19.785Z,102205.97
2019-01-06T14:23:32.699Z,102213.66
2019-01-06T14:25:46.044Z,102211.77
2019-01-06T14:28:07.932Z,102215.63
2019-01-06T14:30:20.958Z,102219.09
2019-01-06T14:32:46.694Z,102215.67
2019-01-06T14:34:58.387Z,102222.48
2019-01-06T14:37:14.753Z,102218.90
2019-01-06T14:39:27.046Z,102224.29
2019-01-06T14:41:38.673Z,102229.45
2019-01-06T14:43:52.286Z,102232.54
2019-01-06T14:46:23.453Z,102241.58
2019-01-06T14:48:34.713Z,102242.42
2019-01-06T14:50:46.320Z,102242.97
2019-01-06T14:52:58.065Z,102245.29
2019-01-06T14:55:20.701Z,102253.14
2019-01-06T14:57:43.045Z,102254.66
2019-01-06T15:00:05.393Z,102255.20
2019-01-06T15:02:32.154Z,102259.69
2019-01-06T15:04:44.232Z,102265.02
2019-01-06T15:07:05.752Z,102267.99
2019-01-06T15:09:17.682Z,102270.03
2019-01-06T15:11:25.609Z,102278.10
2019-01-06T15:13:36.846Z,102275.72
2019-01-06T15:15:48.325Z,102272.56
2019-01-06T15:18:14.938Z,102276.73
2019-01-06T15:20:47.026Z,102277.41
2019-01-06T15:23:00.614Z,102277.48
2019-01-06T15:25:12.210Z,102273.01
2019-01-06T15:27:36.912Z,102279.17
2019-01-06T15:29:49.927Z,102281.07
2019-01-06T15:32:05.753Z,102283.70
2019-01-06T15:34:20.113Z,102284.39
2019-01-06T15:36:31.813Z,102288.02
2019-01-06T15:39:00.074Z,102283.55
2019-01-06T15:41:17.639Z,102283.81
2019-01-06T15:43:30.673Z,102280.91
2019-01-06T15:46:02.045Z,102277.71
2019-01-06T15:48:33.402Z,102281.43
2019-01-06T15:50:51.557Z,102283.77
2019-01-06T15:53:04.575Z,102284.03
2019-01-06T15:55:26.918Z,102289.56
2019-01-06T15:57:51.014Z,102291.20
2019-01-06T16:00:02.755Z,102289.77
2019-01-06T16:02:17.258Z,102293.34
2019-01-06T16:04:48.528Z,102296.80
2019-01-06T16:07:00.085Z,102295.52
2019-01-06T16:09:11.426Z,102294.94
2019-01-06T16:11:31.372Z,102294.80
2019-01-06T16:13:40.912Z,102303.34
2019-01-06T16:15:49.286Z,102309.19
2019-01-06T16:18:18.733Z,102310.91
2019-01-06T16:20:43.814Z,102309.92
2019-01-06T16:22:59.948Z,102311.06
2019-01-06T16:25:13.822Z,102308.44
2019-01-06T16:27:39.504Z,102300.09
2019-01-06T16:29:47.412Z,102305.23
2019-01-06T16:31:59.972Z,102306.43
2019-01-06T16:34:20.908Z,102306.92
2019-01-06T16:36:27.225Z,102318.08
2019-01-06T16:38:40.096Z,102321.30
2019-01-06T16:41:04.352Z,102324.13
2019-01-06T16:43:14.966Z,102330.94
2019-01-06T16:45:29.213Z,102327.09
2019-01-06T16:47:42.122Z,102334.80
2019-01-06T16:50:05.726Z,102347.64
2019-01-06T16:52:17.105Z,102344.12
2019-01-06T16:54:47.929Z,102340.12
2019-01-06T16:57:16.417Z,102345.11
2019-01-06T16:59:27.828Z,102343.83
2019-01-06T17:01:53.222Z,102346.79
2019-01-06T17:04:14.968Z,102347.98
2019-01-06T17:06:25.338Z,102351.69
2019-01-06T17:08:39.853Z,102350.73
2019-01-06T17:11:00.967Z,102349.36
2019-01-06T17:13:29.265Z,102353.55
2019-01-06T17:16:00.826Z,102356.46
2019-01-06T17:18:10.690Z,102359.83
2019-01-06T17:20:35.772Z,102359.33
2019-01-06T17:22:46.852Z,102358.14
2019-01-06T17:24:58.926Z,102357.25
2019-01-06T17:27:11.015Z,102354.69
2019-01-06T17:29:47.912Z,102358.45
2019-01-06T17:32:07.176Z,102355.02
2019-01-06T17:34:26.301Z,102360.62
2019-01-06T17:36:37.493Z,102354.14
2019-01-06T17:38:52.115Z,102357.59
2019-01-06T17:41:09.216Z,102347.63
2019-01-06T17:43:28.297Z,102361.69
2019-01-06T17:45:40.145Z,102360.70
2019-01-06T17:47:52.150Z,102359.77
2019-01-06T17:50:05.908Z,102363.13
2019-01-06T17:52:18.832Z,102361.29
2019-01-06T17:54:38.160Z,102362.02
2019-01-06T17:56:49.325Z,102361.53
2019-01-06T17:59:02.537Z,102359.70
2019-01-06T18:01:29.004Z,102353.34
2019-01-06T18:03:45.798Z,102354.38
2019-01-06T18:06:04.752Z,102359.21
2019-01-06T18:08:16.352Z,102359.27
2019-01-06T18:10:28.794Z,102362.33
2019-01-06T18:12:40.194Z,102363.67
2019-01-06T18:15:06.051Z,102362.88
2019-01-06T18:17:18.045Z,102363.77
2019-01-06T18:19:29.745Z,102369.30
2019-01-06T18:21:48.585Z,102373.64
2019-01-06T18:24:01.965Z,102378.77
2019-01-06T18:26:18.235Z,102381.73
2019-01-06T18:28:43.562Z,102382.69
2019-01-06T18:30:55.242Z,102388.22
2019-01-06T18:33:14.241Z,102392.06
2019-01-06T18:35:33.105Z,102399.37
2019-01-06T18:37:45.164Z,102393.84
2019-01-06T18:40:01.181Z,102392.16
2019-01-06T18:42:16.864Z,102393.54
2019-01-06T18:44:35.718Z,102398.34
2019-01-06T18:46:46.042Z,102395.83
2019-01-06T18:48:56.243Z,102395.83
2019-01-06T18:51:08.866Z,102399.23
2019-01-06T18:53:30.965Z,102403.63
2019-01-06T18:55:41.433Z,102399.37
2019-01-06T18:58:05.020Z,102407.58
2019-01-06T19:00:17.396Z,102408.42
2019-01-06T19:02:30.423Z,102407.58
2019-01-06T19:04:50.234Z,102407.14
2019-01-06T19:07:06.386Z,102410.20
2019-01-06T19:09:18.834Z,102415.73
2019-01-06T19:11:38.425Z,102417.84
2019-01-06T19:13:53.908Z,102422.09
2019-01-06T19:16:19.456Z,102422.00
2019-01-06T19:18:44.441Z,102424.02
2019-01-06T19:20:56.645Z,102427.87
2019-01-06T19:23:08.306Z,102421.78
2019-01-06T19:25:20.252Z,102421.78
2019-01-06T19:27:41.433Z,102428.59
2019-01-06T19:29:54.545Z,102427.62
2019-01-06T19:32:19.992Z,102424.66
2019-01-06T19:34:32.187Z,102422.23
2019-01-06T19:36:49.493Z,102429.64
2019-01-06T19:39:14.666Z,102421.35
2019-01-06T19:41:26.351Z,102421.30
2019-01-06T19:43:40.805Z,102426.33
2019-01-06T19:46:12.666Z,102420.58
2019-01-06T19:48:27.724Z,102424.34
2019-01-06T19:50:38.937Z,102425.96
2019-01-06T19:53:01.388Z,102430.94
2019-01-06T19:55:15.342Z,102434.20
2019-01-06T19:57:27.225Z,102425.55
2019-01-06T19:59:44.625Z,102425.95
2019-01-06T20:02:12.408Z,102429.80
2019-01-06T20:04:32.786Z,102426.50
2019-01-06T20:06:41.664Z,102419.11
2019-01-06T20:08:53.385Z,102423.55
2019-01-06T20:11:07.028Z,102430.52
2019-01-06T20:13:34.194Z,102419.45
2019-01-06T20:16:05.433Z,102420.31
2019-01-06T20:18:18.055Z,102427.31
2019-01-06T20:20:34.018Z,102418.94
2019-01-06T20:22:45.512Z,102424.33
2019-01-06T20:24:57.372Z,102428.27
2019-01-06T20:27:14.313Z,102420.63
2019-01-06T20:29:40.515Z,102428.83
2019-01-06T20:31:52.125Z,102427.20
2019-01-06T20:34:19.554Z,102421.09
2019-01-06T20:36:31.025Z,102421.24
2019-01-06T20:38:43.845Z,102411.55
2019-01-06T20:41:04.172Z,102408.55
2019-01-06T20:43:17.712Z,102414.66
2019-01-06T20:45:31.052Z,102411.76
2019-01-06T20:47:59.045Z,102411.02
2019-01-06T20:50:10.729Z,102414.57
2019-01-06T20:52:28.942Z,102414.17
2019-01-06T20:54:41.315Z,102421.39
2019-01-06T20:57:00.485Z,102415.36
2019-01-06T20:59:20.135Z,102423.16
2019-01-06T21:01:32.285Z,102412.40
2019-01-06T21:03:54.646Z,102427.02
2019-01-06T21:08:36.492Z,102421.30
2019-01-06T21:10:53.314Z,102428.81
2019-01-06T21:13:04.668Z,102426.43
2019-01-06T21:15:16.792Z,102420.16
2019-01-06T21:17:28.393Z,102419.81
2019-01-06T21:19:40.267Z,102413.88
2019-01-06T21:22:02.648Z,102417.09
2019-01-06T21:24:32.134Z,102423.42
2019-01-06T21:27:03.022Z,102425.99
2019-01-06T21:29:15.089Z,102433.25
2019-01-06T21:31:43.591Z,102432.91
2019-01-06T21:33:56.827Z,102434.59
2019-01-06T21:36:13.193Z,102432.27
2019-01-06T21:38:26.349Z,102428.01
2019-01-06T21:40:38.372Z,102432.81
2019-01-06T21:42:55.145Z,102426.73
2019-01-06T21:45:07.026Z,102429.14
2019-01-06T21:47:32.874Z,102434.53
2019-01-06T21:49:57.953Z,102437.50
2019-01-06T21:52:04.065Z,102439.00
2019-01-06T21:54:23.107Z,102437.89
2019-01-06T21:56:36.192Z,102442.75
2019-01-06T21:58:47.246Z,102430.48
2019-01-06T22:01:00.679Z,102441.95
2019-01-06T22:03:12.190Z,102445.17
2019-01-06T22:05:24.190Z,102449.45
2019-01-06T22:07:43.263Z,102458.20
2019-01-06T22:09:55.367Z,102458.12
2019-01-06T22:12:16.943Z,102469.13
2019-01-06T22:14:48.804Z,102470.02
2019-01-06T22:17:14.125Z,102465.62
2019-01-06T22:19:42.573Z,102474.61
2019-01-06T22:21:49.983Z,102480.15
2019-01-06T22:24:19.064Z,102478.37
2019-01-06T22:26:31.624Z,102478.61
2019-01-06T22:28:48.671Z,102474.61
2019-01-06T22:31:10.499Z,102479.34
2019-01-06T22:33:26.152Z,102474.21
2019-01-06T22:35:47.870Z,102472.13
2019-01-06T22:38:00.431Z,102473.57
2019-01-06T22:40:12.307Z,102470.20
2019-01-06T22:42:36.852Z,102469.77
2019-01-06T22:45:04.669Z,102472.92
2019-01-06T22:47:16.070Z,102470.02
2019-01-06T22:49:37.695Z,102469.13
2019-01-06T22:51:50.476Z,102470.02
2019-01-06T22:54:01.873Z,102463.35
2019-01-06T22:56:12.957Z,102464.09
2019-01-06T22:58:23.909Z,102462.66
2019-01-06T23:00:51.161Z,102466.35
2019-01-06T23:03:06.789Z,102469.38
2019-01-06T23:05:22.473Z,102470.20
2019-01-06T23:07:41.025Z,102469.72
2019-01-06T23:09:53.268Z,102471.89
2019-01-06T23:11:56.144Z,102464.88
2019-01-06T23:14:16.429Z,102461.03
2019-01-06T23:16:43.205Z,102467.30
2019-01-06T23:18:54.465Z,102468.34
2019-01-06T23:21:12.912Z,102468.73
2019-01-06T23:23:34.314Z,102469.92
2019-01-06T23:26:02.284Z,102462.95
2019-01-06T23:28:15.391Z,102469.87
2019-01-06T23:30:40.403Z,102472.77
2019-01-06T23:32:52.126Z,102479.20
2019-01-06T23:35:07.585Z,102476.63
2019-01-06T23:37:19.983Z,102474.06
2019-01-06T23:39:30.893Z,102471.80
2019-01-06T23:42:01.590Z,102480.48
2019-01-06T23:44:16.485Z,102485.28
2019-01-06T23:46:32.271Z,102491.37
2019-01-06T23:48:42.983Z,102487.46
2019-01-06T23:50:55.092Z,102498.63
2019-01-06T23:53:10.305Z,102494.03
2019-01-06T23:55:08.766Z,102495.08
2019-01-06T23:57:27.384Z,102496.11
2019-01-06T23:59:37.082Z,102493.45
